Time;durP1;ratioP1;P1;durP2;ratioP2;P2;SDS_P1;SDS_P2;PMS_P1;PMS_P2;Temp;Humidity;BMP_temperature;BMP_pressure;BME280_temperature;BME280_humidity;BME280_pressure;Samples;Min_cycle;Max_cycle;Signal;HPM_P1;HPM_P2
2020/12/23 00:02:02;;;;;;;10.93;2.65;;;;;;;15.92;43.53;100776.91;5094936;28;20062;-74
2020/12/23 00:04:28;;;;;;;10.45;3.00;;;;;;;15.83;43.59;100777.03;5094900;28;20023;-79
2020/12/23 00:06:55;;;;;;;13.20;3.40;;;;;;;16.17;43.74;100777.63;5093226;28;20055;-74
2020/12/23 00:09:21;;;;;;;12.15;3.03;;;;;;;16.38;43.48;100781.78;5093576;28;20386;-79
2020/12/23 00:11:55;;;;;;;15.45;2.95;;;;;;;16.53;42.94;100777.47;5094742;28;20511;-79
2020/12/23 00:14:24;;;;;;;11.20;3.15;;;;;;;16.62;43.58;100782.84;5094764;28;20499;-74
2020/12/23 00:16:50;;;;;;;13.00;2.47;;;;;;;16.90;43.10;100791.09;5094525;28;20024;-74
2020/12/23 00:19:15;;;;;;;16.05;3.10;;;;;;;16.97;43.12;100780.25;5094459;28;20046;-77
2020/12/23 00:21:41;;;;;;;13.15;3.30;;;;;;;16.92;43.37;100786.03;5092886;28;20027;-78
2020/12/23 00:24:07;;;;;;;12.48;4.05;;;;;;;16.84;43.58;100787.81;5093923;28;20024;-79
2020/12/23 00:26:33;;;;;;;17.20;4.32;;;;;;;16.72;44.31;100790.66;5094451;28;20020;-78
2020/12/23 00:28:58;;;;;;;17.45;4.38;;;;;;;16.89;43.63;100778.47;5094469;28;20024;-75
2020/12/23 00:31:24;;;;;;;17.95;4.80;;;;;;;16.55;44.53;100771.59;5094318;28;20024;-75
2020/12/23 00:33:52;;;;;;;6.75;3.15;;;;;;;16.67;44.27;100779.03;5094304;28;20024;-79
2020/12/23 00:36:18;;;;;;;17.45;3.67;;;;;;;16.44;44.55;100782.34;5094267;28;20040;-79
2020/12/23 00:38:44;;;;;;;13.00;3.72;;;;;;;16.59;44.29;100769.75;5094113;28;20055;-74
2020/12/23 00:41:10;;;;;;;10.70;4.20;;;;;;;16.46;44.57;100766.25;5094095;28;20028;-76
2020/12/23 00:43:36;;;;;;;13.35;3.53;;;;;;;16.33;45.12;100750.94;5094028;28;20059;-79
2020/12/23 00:46:03;;;;;;;18.25;3.85;;;;;;;16.36;45.19;100748.25;5094062;28;20027;-74
2020/12/23 00:48:29;;;;;;;9.20;3.55;;;;;;;15.98;46.42;100747.94;5092439;28;20028;-74
2020/12/23 00:50:54;;;;;;;9.75;2.88;;;;;;;15.75;46.07;100753.19;5093906;28;20089;-74
2020/12/23 00:53:21;;;;;;;10.18;2.42;;;;;;;15.96;45.06;100755.78;5092678;28;20110;-78
2020/12/23 00:55:47;;;;;;;24.35;5.22;;;;;;;16.20;44.85;100752.94;5093765;28;20025;-74
2020/12/23 00:58:13;;;;;;;15.35;5.78;;;;;;;16.14;45.69;100775.56;5093832;28;20035;-74
2020/12/23 01:00:39;;;;;;;9.98;3.80;;;;;;;15.96;46.33;100764.03;5093726;28;20032;-77
2020/12/23 01:03:04;;;;;;;15.30;4.70;;;;;;;15.64;46.92;100772.13;5093757;28;20051;-77
2020/12/23 01:05:30;;;;;;;19.50;4.72;;;;;;;15.88;46.06;100757.50;5093454;28;20363;-76
2020/12/23 01:07:55;;;;;;;8.50;2.67;;;;;;;15.98;45.72;100759.78;5093567;28;20501;-77
2020/12/23 01:10:21;;;;;;;15.15;3.03;;;;;;;15.95;45.18;100768.75;5092381;28;20020;-79
2020/12/23 01:12:46;;;;;;;10.55;2.20;;;;;;;15.59;45.92;100782.56;5093586;28;20020;-75
2020/12/23 01:15:12;;;;;;;7.03;1.50;;;;;;;15.31;46.36;100777.72;5093536;28;20086;-75
2020/12/23 01:17:37;;;;;;;12.70;3.28;;;;;;;16.04;44.59;100780.44;5093410;28;20060;-77
2020/12/23 01:20:04;;;;;;;13.13;2.85;;;;;;;16.17;44.50;100777.63;5093375;28;20024;-74
2020/12/23 01:22:29;;;;;;;9.55;2.05;;;;;;;15.65;45.07;100786.72;5093447;28;20107;-74
2020/12/23 01:24:55;;;;;;;8.55;1.92;;;;;;;15.82;43.71;100792.75;5093360;28;20095;-78
2020/12/23 01:27:21;;;;;;;9.02;1.95;;;;;;;15.55;43.88;100802.50;5093275;28;20070;-74
2020/12/23 01:29:46;;;;;;;9.48;2.17;;;;;;;15.34;45.48;100807.34;5093305;28;20028;-77
2020/12/23 01:32:12;;;;;;;10.43;2.75;;;;;;;15.10;47.00;100804.53;5093226;28;20032;-74
2020/12/23 01:34:38;;;;;;;14.57;3.70;;;;;;;14.99;46.96;100799.50;5093030;28;20024;-78
2020/12/23 01:37:03;;;;;;;13.85;2.63;;;;;;;14.62;48.07;100800.53;5093231;28;20027;-74
2020/12/23 01:39:29;;;;;;;11.70;2.28;;;;;;;14.92;47.47;100804.75;5093022;28;20039;-75
2020/12/23 01:41:58;;;;;;;10.43;1.90;;;;;;;15.67;45.38;100801.72;5093065;28;20381;-78
2020/12/23 01:44:24;;;;;;;8.35;2.65;;;;;;;15.89;44.89;100808.72;5093075;28;20381;-78
2020/12/23 01:46:50;;;;;;;17.23;2.13;;;;;;;15.36;45.86;100807.78;5091689;28;20111;-74
2020/12/23 01:49:17;;;;;;;7.93;2.53;;;;;;;15.27;46.10;100818.91;5092894;28;20536;-74
2020/12/23 01:51:43;;;;;;;9.98;2.90;;;;;;;14.45;47.75;100812.47;5092900;28;20032;-74
2020/12/23 01:54:13;;;;;;;5.32;1.70;;;;;;;14.84;47.19;100808.41;5092905;28;20099;-74
2020/12/23 01:56:42;;;;;;;8.13;2.83;;;;;;;15.24;45.60;100810.53;5091592;28;20425;-75
2020/12/23 01:59:07;;;;;;;12.38;2.83;;;;;;;14.31;49.05;100815.50;5093023;28;20039;-78
2020/12/23 02:01:40;;;;;;;6.80;2.17;;;;;;;13.92;50.16;100818.72;5092874;28;20410;-75
2020/12/23 02:04:06;;;;;;;14.90;2.13;;;;;;;14.27;50.68;100824.72;5092758;28;20031;-79
2020/12/23 02:06:35;;;;;;;11.80;2.10;;;;;;;13.99;49.54;100824.47;5092534;28;20131;-75
2020/12/23 02:09:03;;;;;;;17.05;2.92;;;;;;;14.43;48.42;100815.56;5092758;28;20531;-74
2020/12/23 02:11:29;;;;;;;12.43;2.67;;;;;;;14.23;48.95;100799.88;5091431;28;20024;-81
2020/12/23 02:13:55;;;;;;;18.88;3.55;;;;;;;13.69;50.59;100804.47;5092642;28;20486;-79
2020/12/23 02:16:20;;;;;;;9.93;2.10;;;;;;;13.45;51.81;100789.44;5092638;28;20074;-79
2020/12/23 02:18:46;;;;;;;11.85;2.30;;;;;;;13.17;52.86;100786.28;5092679;28;20031;-74
2020/12/23 02:21:12;;;;;;;15.48;2.08;;;;;;;13.47;51.72;100794.56;5092625;28;20032;-79
2020/12/23 02:23:38;;;;;;;8.50;2.17;;;;;;;13.30;52.25;100800.97;5092555;28;20016;-75
2020/12/23 02:26:04;;;;;;;7.63;3.08;;;;;;;13.15;52.52;100813.25;5092533;28;20024;-74
2020/12/23 02:28:29;;;;;;;8.93;2.17;;;;;;;13.22;52.46;100818.25;5092486;28;20386;-75
2020/12/23 02:31:01;;;;;;;8.30;2.13;;;;;;;13.13;52.13;100812.75;5092515;28;20054;-74
2020/12/23 02:33:27;;;;;;;11.98;2.17;;;;;;;12.98;53.04;100800.38;5092490;28;20016;-74
2020/12/23 02:35:52;;;;;;;7.70;2.00;;;;;;;12.96;53.14;100785.41;5092432;28;20474;-75
2020/12/23 02:38:18;;;;;;;17.60;3.03;;;;;;;13.15;52.70;100788.56;5092166;28;20059;-79
2020/12/23 02:40:44;;;;;;;12.80;2.13;;;;;;;12.62;54.03;100794.50;5092332;28;20028;-74
2020/12/23 02:43:09;;;;;;;7.75;1.88;;;;;;;12.69;53.51;100798.34;5092132;28;20028;-78
2020/12/23 02:45:35;;;;;;;11.13;1.70;;;;;;;12.22;53.82;100800.97;5093099;28;20020;-80
2020/12/23 02:48:00;;;;;;;7.57;1.88;;;;;;;12.30;53.30;100815.81;5096396;28;20107;-79
2020/12/23 02:50:26;;;;;;;13.13;2.13;;;;;;;12.92;51.62;100811.84;5096287;28;20024;-74
2020/12/23 02:52:51;;;;;;;7.57;1.98;;;;;;;12.57;52.83;100808.38;5094975;28;20028;-80
2020/12/23 02:55:17;;;;;;;7.80;2.38;;;;;;;12.69;51.51;100814.00;5096222;28;20028;-74
2020/12/23 02:57:43;;;;;;;6.57;2.40;;;;;;;12.49;52.40;100818.22;5096170;28;20092;-78
2020/12/23 03:00:12;;;;;;;10.00;2.08;;;;;;;13.17;50.99;100823.91;5095704;28;20032;-79
2020/12/23 03:02:37;;;;;;;4.57;1.63;;;;;;;12.45;52.35;100811.78;5096155;28;20077;-77
2020/12/23 03:05:03;;;;;;;6.80;1.88;;;;;;;12.37;51.93;100796.94;5095779;28;20490;-78
2020/12/23 03:07:29;;;;;;;9.75;2.47;;;;;;;13.29;50.12;100804.81;5095886;28;20036;-74
2020/12/23 03:09:55;;;;;;;6.65;1.83;;;;;;;12.72;51.44;100796.91;5095912;28;20020;-78
2020/12/23 03:12:21;;;;;;;7.80;1.75;;;;;;;12.62;51.70;100795.31;5094545;28;20483;-74
2020/12/23 03:14:46;;;;;;;5.75;1.98;;;;;;;12.61;52.46;100790.94;5095821;28;20024;-78
2020/12/23 03:17:12;;;;;;;15.68;3.42;;;;;;;12.80;52.22;100803.50;5095797;28;20031;-75
2020/12/23 03:19:37;;;;;;;10.85;2.13;;;;;;;13.06;51.14;100791.31;5095733;28;20039;-76
2020/12/23 03:22:03;;;;;;;10.05;2.42;;;;;;;12.68;53.00;100787.72;5095728;28;20056;-74
2020/12/23 03:24:28;;;;;;;7.05;1.90;;;;;;;12.47;52.89;100782.13;5095727;28;20040;-79
2020/12/23 03:26:54;;;;;;;8.45;1.67;;;;;;;12.32;52.35;100760.69;5095756;28;20028;-79
2020/12/23 03:29:20;;;;;;;8.70;1.80;;;;;;;11.85;53.50;100768.75;5095666;28;20482;-75
2020/12/23 03:31:45;;;;;;;14.90;1.90;;;;;;;11.81;54.83;100762.31;5095450;28;20470;-81
2020/12/23 03:34:11;;;;;;;11.27;2.00;;;;;;;12.22;53.78;100761.81;5095477;28;20163;-78
2020/12/23 03:36:37;;;;;;;10.07;3.28;;;;;;;11.66;54.09;100761.63;5095429;28;20498;-74
2020/12/23 03:39:04;;;;;;;15.95;2.65;;;;;;;12.04;53.22;100776.66;5095335;28;20478;-75
2020/12/23 03:41:29;;;;;;;5.13;1.40;;;;;;;12.27;52.80;100771.81;5095327;28;20031;-80
2020/12/23 03:43:55;;;;;;;4.82;1.63;;;;;;;12.21;53.61;100763.75;5095490;28;20509;-77
2020/12/23 03:46:21;;;;;;;3.47;1.00;;;;;;;12.08;53.71;100772.13;5095283;28;20050;-79
2020/12/23 03:48:46;;;;;;;9.25;1.95;;;;;;;12.71;52.51;100763.22;5093896;28;20074;-74
2020/12/23 03:51:12;;;;;;;12.63;3.70;;;;;;;12.50;53.28;100756.81;5095153;28;20032;-74
2020/12/23 03:53:38;;;;;;;7.38;2.05;;;;;;;12.47;53.15;100768.44;5093864;28;20119;-74
2020/12/23 03:56:03;;;;;;;10.90;1.50;;;;;;;12.60;52.63;100756.44;5095034;28;20062;-74
2020/12/23 03:58:29;;;;;;;5.90;1.50;;;;;;;12.81;51.54;100756.56;5093697;28;20028;-78
2020/12/23 04:00:54;;;;;;;11.73;1.88;;;;;;;12.72;51.65;100756.59;5094931;28;20027;-74
2020/12/23 04:03:20;;;;;;;5.45;1.80;;;;;;;12.95;51.38;100753.63;5094966;28;20028;-74
2020/12/23 04:05:46;;;;;;;13.20;2.25;;;;;;;12.97;52.22;100743.91;5094675;28;20056;-76
2020/12/23 04:08:12;;;;;;;8.95;1.98;;;;;;;12.78;52.12;100752.56;5094797;28;20112;-78
2020/12/23 04:10:37;;;;;;;8.93;2.05;;;;;;;12.57;52.96;100746.16;5094744;28;20051;-80
2020/12/23 04:13:03;;;;;;;9.13;1.90;;;;;;;12.14;53.95;100744.25;5094769;28;20465;-77
2020/12/23 04:15:29;;;;;;;6.43;1.75;;;;;;;12.14;54.42;100744.25;5093373;28;20020;-77
2020/12/23 04:17:55;;;;;;;9.77;1.83;;;;;;;12.93;52.47;100753.16;5094726;28;20386;-77
2020/12/23 04:20:21;;;;;;;3.78;1.65;;;;;;;12.91;51.74;100753.44;5094547;28;20038;-74
2020/12/23 04:22:46;;;;;;;7.85;2.03;;;;;;;12.62;53.18;100767.91;5094628;28;20377;-74
2020/12/23 04:25:12;;;;;;;11.50;2.20;;;;;;;13.01;51.50;100772.31;5094622;28;20074;-76
2020/12/23 04:27:38;;;;;;;12.18;2.45;;;;;;;12.34;53.15;100763.94;5094433;28;20028;-74
2020/12/23 04:30:07;;;;;;;16.75;3.63;;;;;;;12.37;54.19;100768.75;5094404;28;20032;-74
2020/12/23 04:32:33;;;;;;;5.85;1.88;;;;;;;12.26;53.82;100764.75;5093982;28;20039;-74
2020/12/23 04:35:01;;;;;;;6.05;1.80;;;;;;;11.90;54.30;100772.13;5093032;28;20020;-74
2020/12/23 04:37:28;;;;;;;10.32;2.03;;;;;;;12.05;53.60;100783.75;5094339;28;20607;-80
2020/12/23 04:39:55;;;;;;;9.32;2.03;;;;;;;12.31;53.11;100776.31;5094119;28;20024;-75
2020/12/23 04:42:20;;;;;;;4.32;1.25;;;;;;;12.28;52.83;100774.25;5092923;28;20386;-75
2020/12/23 04:44:46;;;;;;;10.88;2.50;;;;;;;12.33;53.47;100767.78;5094077;28;20020;-74
2020/12/23 04:47:15;;;;;;;4.18;1.27;;;;;;;11.61;54.11;100780.91;5094067;28;20063;-74
2020/12/23 04:49:45;;;;;;;6.50;1.50;;;;;;;12.42;51.96;100768.59;5094106;28;20024;-74
2020/12/23 04:52:11;;;;;;;;;;;;;;;12.35;51.76;100758.13;5094784;28;20065;-74
2020/12/23 04:54:37;;;;;;;4.47;1.30;;;;;;;12.35;51.66;100768.28;5093988;28;19957;-74
2020/12/23 04:57:02;;;;;;;5.38;1.45;;;;;;;11.88;53.51;100759.91;5093929;28;20099;-75
2020/12/23 04:59:28;;;;;;;8.05;1.65;;;;;;;12.09;52.87;100763.63;5093761;28;20020;-76
2020/12/23 05:01:57;;;;;;;7.47;1.30;;;;;;;11.86;54.48;100762.97;5093822;28;20576;-78
2020/12/23 05:04:25;;;;;;;6.03;1.93;;;;;;;12.09;52.97;100744.44;5093838;28;20101;-73
2020/12/23 05:07:00;;;;;;;9.77;2.58;;;;;;;12.25;53.04;100752.19;5092164;28;20124;-78
2020/12/23 05:09:26;;;;;;;9.07;2.13;;;;;;;12.58;52.20;100746.94;5093208;28;20158;-74
2020/12/23 05:11:53;;;;;;;10.55;2.17;;;;;;;12.29;52.92;100740.22;5093578;28;20055;-77
2020/12/23 05:14:20;;;;;;;6.63;1.67;;;;;;;12.01;54.21;100736.22;5093566;28;20178;-74
2020/12/23 05:16:48;;;;;;;9.23;1.88;;;;;;;12.01;54.91;100728.78;5093534;28;20028;-75
2020/12/23 05:19:17;;;;;;;16.02;2.53;;;;;;;11.97;54.78;100735.25;5093374;28;20119;-74
2020/12/23 05:21:44;;;;;;;12.68;2.17;;;;;;;12.47;53.18;100749.25;5093167;28;20039;-74
2020/12/23 05:24:09;;;;;;;6.70;1.17;;;;;;;12.10;54.01;100748.78;5093418;28;20028;-74
2020/12/23 05:26:39;;;;;;;4.97;1.65;;;;;;;11.88;54.46;100763.44;5093478;28;20557;-76
2020/12/23 05:29:05;;;;;;;;;;;;;;;12.21;53.67;100747.31;5093977;28;20035;-74
2020/12/23 05:31:32;;;;;;;15.02;3.15;;;;;;;12.64;52.45;100754.69;5093230;28;19920;-74
2020/12/23 05:33:59;;;;;;;16.65;4.43;;;;;;;13.02;51.93;100762.16;5091967;28;20024;-74
2020/12/23 05:36:26;;;;;;;7.38;2.72;;;;;;;12.69;52.98;100759.16;5093243;28;20379;-78
2020/12/23 05:38:51;;;;;;;12.00;2.13;;;;;;;12.78;51.89;100754.50;5093179;28;20028;-76
2020/12/23 05:41:17;;;;;;;12.05;2.45;;;;;;;12.43;52.63;100754.56;5093076;28;20092;-80
2020/12/23 05:43:43;;;;;;;11.40;3.10;;;;;;;12.72;52.23;100759.34;5093090;28;20028;-77
2020/12/23 05:46:11;;;;;;;8.05;2.13;;;;;;;12.90;51.37;100764.75;5091766;28;20035;-74
2020/12/23 05:48:39;;;;;;;16.02;4.10;;;;;;;12.93;51.46;100751.22;5093044;28;20395;-74
2020/12/23 05:51:06;;;;;;;9.77;2.72;;;;;;;12.61;52.68;100758.06;5092995;28;20489;-78
2020/12/23 05:53:34;;;;;;;11.65;2.45;;;;;;;12.95;51.69;100761.84;5092333;28;20117;-75
2020/12/23 05:56:01;;;;;;;7.65;2.90;;;;;;;12.80;52.46;100744.00;5092052;28;20035;-75
2020/12/23 05:58:35;;;;;;;9.23;2.30;;;;;;;12.95;51.55;100751.69;5092903;28;20710;-74
2020/12/23 06:01:04;;;;;;;13.00;1.77;;;;;;;12.82;52.22;100746.41;5092585;28;20035;-74
2020/12/23 06:03:52;;;;;;;9.85;1.90;;;;;;;12.70;52.41;100747.09;5092796;28;20028;-79
2020/12/23 06:06:25;;;;;;;9.27;2.45;;;;;;;12.85;52.28;100740.28;5091244;28;20048;-75
2020/12/23 06:08:54;;;;;;;13.98;3.40;;;;;;;13.13;51.93;100733.19;5092738;28;20060;-74
2020/12/23 06:11:40;;;;;;;15.75;3.05;;;;;;;13.29;51.37;100723.28;5091406;28;20403;-78
2020/12/23 06:14:15;;;;;;;10.60;3.55;;;;;;;13.31;51.45;100725.72;5092776;28;20024;-77
2020/12/23 06:16:41;;;;;;;14.18;2.90;;;;;;;12.99;51.91;100722.44;5092715;28;20020;-74
2020/12/23 06:19:11;;;;;;;13.02;2.50;;;;;;;12.84;52.00;100725.72;5092488;28;20408;-77
2020/12/23 06:21:38;;;;;;;13.65;2.60;;;;;;;13.15;51.34;100730.94;5095192;28;20051;-72
2020/12/23 06:24:08;;;;;;;14.73;2.97;;;;;;;13.47;50.71;100740.47;5096773;28;20039;-76
2020/12/23 06:26:38;;;;;;;8.68;2.33;;;;;;;13.32;51.08;100717.16;5096821;28;20028;-76
2020/12/23 06:29:09;;;;;;;5.88;1.55;;;;;;;12.95;50.65;100726.19;5096722;28;20028;-73
2020/12/23 06:31:50;;;;;;;10.93;2.65;;;;;;;13.18;51.00;100722.03;5096756;28;20378;-77
2020/12/23 06:34:19;;;;;;;11.63;1.85;;;;;;;13.18;50.72;100721.25;5095184;28;20468;-74
2020/12/23 06:36:46;;;;;;;9.48;3.13;;;;;;;13.36;50.03;100716.47;5095096;28;20024;-75
2020/12/23 06:39:22;;;;;;;14.88;3.45;;;;;;;13.37;49.83;100715.34;5096463;28;20497;-73
2020/12/23 06:41:49;;;;;;;12.85;2.35;;;;;;;13.51;49.67;100732.38;5093684;28;20114;-72
2020/12/23 06:44:16;;;;;;;11.18;2.83;;;;;;;13.80;49.29;100726.84;5094585;28;20477;-74
2020/12/23 06:47:21;;;;;;;12.35;3.22;;;;;;;13.95;49.08;100735.63;5093227;28;20031;-74
2020/12/23 06:49:54;;;;;;;8.20;2.58;;;;;;;13.67;48.88;100730.66;5052484;28;20111;-74
2020/12/23 06:52:29;;;;;;;12.73;2.70;;;;;;;13.68;49.04;100724.03;5094695;28;20028;-74
2020/12/23 06:55:09;;;;;;;10.60;2.72;;;;;;;13.64;49.78;100723.09;5093332;28;20478;-74
2020/12/23 06:57:34;;;;;;;17.55;2.53;;;;;;;13.85;49.46;100734.09;5096227;28;20069;-77
2020/12/23 07:00:03;;;;;;;8.27;2.58;;;;;;;13.58;49.41;100735.41;5096155;28;20032;-75
2020/12/23 07:02:32;;;;;;;10.38;3.13;;;;;;;13.46;50.19;100727.09;5096228;28;20070;-74
2020/12/23 07:04:59;;;;;;;14.18;3.28;;;;;;;13.88;49.45;100725.97;5096178;28;20103;-74
2020/12/23 07:07:36;;;;;;;8.10;2.35;;;;;;;13.67;49.42;100722.41;5095890;28;20555;-74
2020/12/23 07:10:15;;;;;;;11.45;2.78;;;;;;;13.64;49.31;100725.03;5096031;28;20055;-78
2020/12/23 07:13:02;;;;;;;10.82;3.05;;;;;;;13.81;48.81;100722.16;5096064;28;20031;-74
2020/12/23 07:15:35;;;;;;;8.50;2.38;;;;;;;13.69;48.53;100728.41;5095904;28;20024;-74
2020/12/23 07:18:03;;;;;;;9.93;2.58;;;;;;;13.81;47.73;100725.69;5095821;28;20099;-74
2020/12/23 07:20:36;;;;;;;12.88;3.38;;;;;;;13.47;48.96;100725.97;5095719;28;20104;-77
2020/12/23 07:23:11;;;;;;;6.78;2.20;;;;;;;13.54;48.74;100724.28;5094480;28;20498;-75
2020/12/23 07:25:51;;;;;;;7.18;2.05;;;;;;;13.72;48.20;100724.16;5095519;28;20024;-74
2020/12/23 07:28:25;;;;;;;8.55;2.05;;;;;;;13.63;48.85;100726.19;5094390;28;20027;-74
2020/12/23 07:30:51;;;;;;;9.80;2.72;;;;;;;13.70;47.96;100727.25;5095672;28;20031;-77
2020/12/23 07:33:19;;;;;;;14.73;3.45;;;;;;;13.98;48.08;100718.47;5095103;28;20099;-77
2020/12/23 07:35:47;;;;;;;11.02;2.22;;;;;;;13.74;48.19;100722.69;5095488;28;20031;-75
2020/12/23 07:38:14;;;;;;;8.98;2.10;;;;;;;13.53;47.98;100717.19;5094229;28;20020;-73
2020/12/23 07:40:40;;;;;;;12.32;2.60;;;;;;;13.71;48.04;100720.63;5095461;28;20060;-79
2020/12/23 07:43:06;;;;;;;11.32;3.33;;;;;;;13.55;48.45;100714.91;5095339;28;20528;-74
2020/12/23 07:45:33;;;;;;;9.85;2.70;;;;;;;13.72;48.21;100719.47;5095427;28;20020;-74
2020/12/23 07:48:03;;;;;;;8.73;2.35;;;;;;;13.33;48.48;100713.28;5095364;28;20108;-77
2020/12/23 07:50:32;;;;;;;9.50;2.28;;;;;;;13.26;49.06;100713.00;5095424;28;20027;-81
2020/12/23 07:52:58;;;;;;;11.02;2.60;;;;;;;12.99;49.59;100727.13;5095216;28;20383;-75
2020/12/23 07:55:24;;;;;;;11.93;3.05;;;;;;;13.30;48.82;100719.44;5094339;28;20030;-74
2020/12/23 07:57:52;;;;;;;6.45;2.30;;;;;;;13.17;49.20;100728.69;5095215;28;20403;-76
2020/12/23 08:00:19;;;;;;;5.13;1.77;;;;;;;13.28;48.68;100729.13;5094633;28;20024;-76
2020/12/23 08:02:45;;;;;;;14.73;4.07;;;;;;;13.61;48.53;100734.75;5093980;28;20063;-76
2020/12/23 08:05:12;;;;;;;5.35;1.67;;;;;;;13.30;47.92;100733.16;5094899;28;20119;-76
2020/12/23 08:07:43;;;;;;;15.05;3.08;;;;;;;13.53;47.77;100733.66;5094901;28;20036;-75
2020/12/23 08:10:13;;;;;;;13.23;3.85;;;;;;;13.46;47.90;100741.63;5094580;28;20020;-76
2020/12/23 08:12:42;;;;;;;12.60;2.72;;;;;;;13.45;48.11;100728.22;5095047;28;20020;-77
2020/12/23 08:15:14;;;;;;;11.07;3.08;;;;;;;13.39;48.11;100737.78;5094829;28;20024;-74
2020/12/23 08:17:41;;;;;;;20.33;3.83;;;;;;;13.18;48.78;100741.25;5093762;28;20067;-73
2020/12/23 08:20:09;;;;;;;11.43;2.53;;;;;;;13.42;48.22;100742.59;5093800;28;20032;-72
2020/12/23 08:22:36;;;;;;;7.38;1.85;;;;;;;13.57;47.50;100742.84;5094003;28;20020;-73
2020/12/23 08:25:05;;;;;;;12.70;3.25;;;;;;;13.54;47.32;100750.94;5093868;28;20032;-75
2020/12/23 08:27:32;;;;;;;10.48;2.83;;;;;;;13.62;47.55;100755.56;5092609;28;20459;-75
2020/12/23 08:29:59;;;;;;;7.07;2.28;;;;;;;13.45;47.67;100747.41;5092219;28;20122;-77
2020/12/23 08:32:28;;;;;;;10.82;2.03;;;;;;;13.15;48.93;100761.13;5094508;28;20034;-85
2020/12/23 08:34:58;;;;;;;19.27;5.13;;;;;;;13.72;48.39;100751.63;5094113;28;20023;-77
2020/12/23 08:37:24;;;;;;;15.45;3.70;;;;;;;14.28;48.01;100763.13;5093009;28;20124;-78
2020/12/23 08:39:57;;;;;;;15.45;3.67;;;;;;;14.15;48.68;100765.03;5093981;28;20042;-78
2020/12/23 08:42:23;;;;;;;14.57;4.40;;;;;;;13.73;49.24;100761.47;5094409;28;20494;-79
2020/12/23 08:44:50;;;;;;;6.50;2.15;;;;;;;13.57;49.74;100759.31;5091581;28;20024;-80
2020/12/23 08:47:32;;;;;;;9.15;2.42;;;;;;;13.47;49.31;100761.63;5094075;28;20032;-77
2020/12/23 08:49:59;;;;;;;11.82;3.53;;;;;;;13.95;48.32;100766.63;5094088;28;20467;-77
2020/12/23 08:52:25;;;;;;;8.75;2.25;;;;;;;13.53;49.08;100768.56;5093710;28;20043;-77
2020/12/23 08:54:51;;;;;;;6.63;2.20;;;;;;;13.23;50.12;100776.78;5093698;28;20423;-77
2020/12/23 08:57:26;;;;;;;20.27;4.95;;;;;;;13.69;49.01;100768.78;5093632;28;20378;-77
2020/12/23 08:59:53;;;;;;;12.93;3.55;;;;;;;13.24;49.75;100777.56;5093293;28;20024;-78
2020/12/23 09:02:20;;;;;;;5.93;2.08;;;;;;;13.20;49.52;100784.84;5092464;28;20025;-77
2020/12/23 09:04:46;;;;;;;6.38;2.80;;;;;;;14.03;48.19;100792.44;5093845;28;20103;-77
2020/12/23 09:07:19;;;;;;;13.07;2.45;;;;;;;13.40;49.20;100783.31;5093636;28;20131;-78
2020/12/23 09:09:44;;;;;;;8.75;2.17;;;;;;;12.72;51.35;100797.72;5093810;28;20106;-77
2020/12/23 09:12:19;;;;;;;11.65;2.20;;;;;;;13.21;51.24;100781.78;5092385;28;20114;-79
2020/12/23 09:14:45;;;;;;;14.48;3.25;;;;;;;13.38;51.15;100800.13;5092070;28;20027;-78
2020/12/23 09:17:18;;;;;;;20.05;3.63;;;;;;;13.85;50.92;100803.56;5093620;28;20450;-78
2020/12/23 09:19:44;;;;;;;26.13;5.60;;;;;;;13.88;51.58;100807.56;5093305;28;20024;-78
2020/12/23 09:22:11;;;;;;;11.68;2.90;;;;;;;13.70;51.25;100804.13;5092121;28;20035;-79
2020/12/23 09:24:37;;;;;;;7.85;1.77;;;;;;;13.40;51.04;100795.09;5091998;28;20020;-80
2020/12/23 09:27:19;;;;;;;11.50;2.35;;;;;;;13.43;50.88;100818.31;5092127;28;20035;-79
2020/12/23 09:29:45;;;;;;;19.85;2.85;;;;;;;13.67;49.11;100809.47;5093565;28;20490;-86
2020/12/23 09:32:10;;;;;;;7.15;2.47;;;;;;;13.01;50.76;100807.97;5091421;28;20036;-82
2020/12/23 09:34:37;;;;;;;14.60;2.50;;;;;;;13.59;49.09;100822.09;5090959;28;20524;-77
2020/12/23 09:37:03;;;;;;;10.25;2.00;;;;;;;13.40;49.89;100816.25;5092147;28;20497;-78
2020/12/23 09:39:28;;;;;;;12.13;3.42;;;;;;;14.15;49.03;100829.03;5093233;28;20028;-79
2020/12/23 09:44:24;;;;;;;12.25;3.42;;;;;;;13.51;50.22;100828.44;5056744;28;20051;-77
2020/12/23 09:46:50;;;;;;;12.70;3.55;;;;;;;13.68;49.85;100836.63;5036454;28;20040;-79
2020/12/23 09:49:15;;;;;;;12.90;3.03;;;;;;;13.64;49.49;100838.41;5034332;28;20045;-79
2020/12/23 09:51:46;;;;;;;10.73;2.63;;;;;;;13.72;49.26;100823.81;5036284;28;20028;-79
2020/12/23 09:54:12;;;;;;;5.05;1.80;;;;;;;13.76;48.68;100832.22;5050551;28;20154;-79
2020/12/23 09:56:37;;;;;;;12.93;2.63;;;;;;;13.40;49.98;100841.75;5071498;28;20111;-80
2020/12/23 09:59:03;;;;;;;11.48;3.42;;;;;;;13.31;49.86;100850.03;5071405;28;20020;-81
2020/12/23 10:01:28;;;;;;;9.45;2.08;;;;;;;13.79;47.84;100862.56;5071642;28;20028;-82
2020/12/23 10:03:54;;;;;;;8.77;2.63;;;;;;;13.35;48.88;100854.84;5071417;28;20512;-80
2020/12/23 10:06:19;;;;;;;15.52;3.22;;;;;;;13.40;49.64;100860.97;5070480;28;20032;-79
2020/12/23 10:08:45;;;;;;;11.40;2.97;;;;;;;13.74;48.98;100860.00;5070450;28;20029;-80
2020/12/23 10:11:10;;;;;;;10.55;2.80;;;;;;;13.84;49.13;100864.31;5052924;28;20112;-79
2020/12/23 10:13:36;;;;;;;17.50;4.07;;;;;;;13.74;50.08;100865.47;5070183;28;20041;-85
2020/12/23 10:16:02;;;;;;;12.30;3.65;;;;;;;13.81;48.23;100849.28;5070632;28;20028;-80
2020/12/23 10:18:27;;;;;;;11.93;2.92;;;;;;;13.47;49.58;100869.50;5070687;28;20399;-79
2020/12/23 10:20:53;;;;;;;13.50;3.47;;;;;;;13.29;49.35;100859.69;5068902;28;20029;-85
2020/12/23 10:23:19;;;;;;;20.05;4.00;;;;;;;13.77;48.59;100870.31;5069365;28;20081;-82
2020/12/23 10:25:45;;;;;;;9.73;3.05;;;;;;;14.39;47.28;100874.28;5070587;28;20028;-80
2020/12/23 10:28:10;;;;;;;12.93;2.78;;;;;;;13.80;48.54;100880.63;5052543;28;20384;-81
2020/12/23 10:30:36;;;;;;;9.88;2.60;;;;;;;14.04;47.90;100885.50;5052581;28;20041;-81
2020/12/23 10:33:02;;;;;;;8.57;2.30;;;;;;;13.43;48.90;100887.75;5069624;28;20535;-81
2020/12/23 10:35:27;;;;;;;8.80;2.60;;;;;;;13.54;48.76;100871.72;5069581;28;20498;-81
2020/12/23 10:37:53;;;;;;;7.25;2.53;;;;;;;13.16;48.88;100857.97;5070254;28;20031;-81
2020/12/23 10:40:18;;;;;;;10.65;2.88;;;;;;;13.66;48.66;100885.56;5070335;28;20086;-82
2020/12/23 10:42:45;;;;;;;6.97;1.70;;;;;;;12.99;49.73;100880.72;5066605;28;20036;-86
2020/12/23 10:45:11;;;;;;;8.18;2.97;;;;;;;12.75;50.44;100881.25;5053255;28;20036;-83
2020/12/23 10:47:36;;;;;;;13.32;3.03;;;;;;;13.60;48.97;100890.44;5070425;28;20394;-86
2020/12/23 10:50:03;;;;;;;16.15;3.45;;;;;;;13.85;48.07;100893.38;5068020;28;20399;-79
2020/12/23 10:52:28;;;;;;;9.18;3.15;;;;;;;13.42;49.35;100907.28;5068628;28;20111;-83
2020/12/23 10:54:55;;;;;;;9.27;2.80;;;;;;;13.07;49.74;100901.84;5070032;28;20108;-80
2020/12/23 10:57:20;;;;;;;7.88;2.17;;;;;;;13.37;49.45;100907.47;5070573;28;20458;-80
2020/12/23 10:59:46;;;;;;;9.98;4.20;;;;;;;13.40;49.85;100904.06;5069415;28;20047;-79
2020/12/23 11:02:12;;;;;;;11.15;2.97;;;;;;;13.41;49.86;100905.69;5069891;28;20462;-80
2020/12/23 11:04:38;;;;;;;8.75;2.83;;;;;;;12.87;51.00;100899.78;5071064;28;20037;-80
2020/12/23 11:07:04;;;;;;;20.20;3.40;;;;;;;13.70;49.73;100913.97;5054644;28;20029;-82
2020/12/23 11:09:30;;;;;;;10.68;2.97;;;;;;;13.58;50.27;100920.16;5069542;28;20039;-81
2020/12/23 11:11:55;;;;;;;6.82;2.38;;;;;;;13.22;49.58;100909.59;5067657;28;20098;-80
2020/12/23 11:14:21;;;;;;;12.27;2.72;;;;;;;13.51;49.07;100919.03;5074670;28;20021;-84
2020/12/23 11:16:51;;;;;;;6.22;2.38;;;;;;;13.16;48.98;100916.38;5055723;28;20432;-82
2020/12/23 11:19:20;;;;;;;12.70;3.13;;;;;;;13.25;48.27;100894.44;5053490;28;20035;-81
2020/12/23 11:21:46;;;;;;;11.80;2.80;;;;;;;13.43;47.87;100912.44;5073448;28;20111;-80
2020/12/23 11:24:12;;;;;;;11.95;3.00;;;;;;;12.69;48.26;100908.00;5054618;28;20455;-80
2020/12/23 11:26:37;;;;;;;5.88;1.83;;;;;;;12.95;47.36;100899.78;5055735;28;20101;-81